sensor_id;sensor_type;location;lat;lon;timestamp;pressure;altitude;pressure_sealevel;temperature;humidity
34197;BME280;36594;45.192;5.722;2023-03-04T00:00:31;99576.89;;;19.54;30.58
34197;BME280;36594;45.192;5.722;2023-03-04T00:03:19;99569.23;;;19.54;30.60
34197;BME280;36594;45.192;5.722;2023-03-04T00:06:08;99574.69;;;19.54;30.63
34197;BME280;36594;45.192;5.722;2023-03-04T00:08:56;99576.59;;;19.53;30.44
34197;BME280;36594;45.192;5.722;2023-03-04T00:11:44;99576.59;;;19.53;30.44
34197;BME280;36594;45.192;5.722;2023-03-04T00:14:32;99578.48;;;19.53;30.63
34197;BME280;36594;45.192;5.722;2023-03-04T00:17:21;99583.08;;;19.52;30.64
34197;BME280;36594;45.192;5.722;2023-03-04T00:20:12;99584.45;;;19.52;30.65
34197;BME280;36594;45.192;5.722;2023-03-04T00:23:00;99588.31;;;19.54;30.64
34197;BME280;36594;45.192;5.722;2023-03-04T00:25:48;99588.64;;;19.55;30.61
34197;BME280;36594;45.192;5.722;2023-03-04T00:28:37;99585.91;;;19.55;30.61
34197;BME280;36594;45.192;5.722;2023-03-04T00:31:26;99595.45;;;19.55;30.60
34197;BME280;36594;45.192;5.722;2023-03-04T00:34:14;99598.47;;;19.56;30.61
34197;BME280;36594;45.192;5.722;2023-03-04T00:37:02;99593.02;;;19.56;30.61
34197;BME280;36594;45.192;5.722;2023-03-04T00:39:51;99586.20;;;19.56;30.61
34197;BME280;36594;45.192;5.722;2023-03-04T00:42:39;99591.36;;;19.55;30.62
34197;BME280;36594;45.192;5.722;2023-03-04T00:45:28;99586.42;;;19.54;30.66
34197;BME280;36594;45.192;5.722;2023-03-04T00:48:16;99584.22;;;19.54;30.67
34197;BME280;36594;45.192;5.722;2023-03-04T00:51:05;99583.92;;;19.53;30.66
34197;BME280;36594;45.192;5.722;2023-03-04T00:53:53;99587.79;;;19.54;30.67
34197;BME280;36594;45.192;5.722;2023-03-04T00:56:41;99582.86;;;19.54;30.68
34197;BME280;36594;45.192;5.722;2023-03-04T00:59:31;99578.77;;;19.54;30.64
34197;BME280;36594;45.192;5.722;2023-03-04T01:02:19;99575.02;;;19.55;30.62
34197;BME280;36594;45.192;5.722;2023-03-04T01:05:09;99576.38;;;19.55;30.64
34197;BME280;36594;45.192;5.722;2023-03-04T01:07:58;99575.53;;;19.54;30.63
34197;BME280;36594;45.192;5.722;2023-03-04T01:10:47;99575.02;;;19.55;30.62
34197;BME280;36594;45.192;5.722;2023-03-04T01:13:36;99566.84;;;19.55;30.66
34197;BME280;36594;45.192;5.722;2023-03-04T01:16:25;99564.02;;;19.52;30.66
34197;BME280;36594;45.192;5.722;2023-03-04T01:19:14;99566.22;;;19.53;30.69
34197;BME280;36594;45.192;5.722;2023-03-04T01:22:03;99559.30;;;19.50;30.66
34197;BME280;36594;45.192;5.722;2023-03-04T01:24:52;99559.08;;;19.52;30.72
34197;BME280;36594;45.192;5.722;2023-03-04T01:27:40;99547.34;;;19.51;30.69
34197;BME280;36594;45.192;5.722;2023-03-04T01:30:28;99552.59;;;19.53;30.66
34197;BME280;36594;45.192;5.722;2023-03-04T01:33:17;99549.13;;;19.55;30.67
34197;BME280;36594;45.192;5.722;2023-03-04T01:36:05;99547.98;;;19.53;30.64
34197;BME280;36594;45.192;5.722;2023-03-04T01:38:54;99541.79;;;19.49;30.72
34197;BME280;36594;45.192;5.722;2023-03-04T01:41:43;99547.66;;;19.52;30.66
34197;BME280;36594;45.192;5.722;2023-03-04T01:44:33;99550.78;;;19.56;30.68
34197;BME280;36594;45.192;5.722;2023-03-04T01:47:23;99552.70;;;19.55;30.68
34197;BME280;36594;45.192;5.722;2023-03-04T01:50:26;99545.78;;;19.53;30.70
34197;BME280;36594;45.192;5.722;2023-03-04T01:53:20;99541.98;;;19.54;30.68
34197;BME280;36594;45.192;5.722;2023-03-04T01:56:27;99538.35;;;19.51;30.71
34197;BME280;36594;45.192;5.722;2023-03-04T01:59:17;99531.84;;;19.52;30.72
34197;BME280;36594;45.192;5.722;2023-03-04T02:02:05;99533.62;;;19.49;30.75
34197;BME280;36594;45.192;5.722;2023-03-04T02:04:56;99534.27;;;19.51;30.72
34197;BME280;36594;45.192;5.722;2023-03-04T02:07:44;99532.91;;;19.51;30.73
34197;BME280;36594;45.192;5.722;2023-03-04T02:10:33;99533.72;;;19.51;30.70
34197;BME280;36594;45.192;5.722;2023-03-04T02:13:22;99525.38;;;19.46;30.74
34197;BME280;36594;45.192;5.722;2023-03-04T02:16:11;99537.71;;;19.55;30.70
34197;BME280;36594;45.192;5.722;2023-03-04T02:19:00;99529.22;;;19.54;30.67
34197;BME280;36594;45.192;5.722;2023-03-04T02:21:49;99532.45;;;19.54;30.69
34197;BME280;36594;45.192;5.722;2023-03-04T02:25:30;99530.05;;;19.55;30.67
34197;BME280;36594;45.192;5.722;2023-03-04T02:27:32;99528.70;;;19.55;30.69
34197;BME280;36594;45.192;5.722;2023-03-04T02:30:22;99529.73;;;19.54;30.68
34197;BME280;36594;45.192;5.722;2023-03-04T02:33:16;99530.28;;;19.53;30.70
34197;BME280;36594;45.192;5.722;2023-03-04T02:36:07;99527.56;;;19.53;30.71
34197;BME280;36594;45.192;5.722;2023-03-04T02:39:02;99529.73;;;19.54;30.71
34197;BME280;36594;45.192;5.722;2023-03-04T02:41:53;99523.14;;;19.52;30.74
34197;BME280;36594;45.192;5.722;2023-03-04T02:44:45;99513.39;;;19.54;30.70
34197;BME280;36594;45.192;5.722;2023-03-04T02:47:35;99518.22;;;19.52;30.72
34197;BME280;36594;45.192;5.722;2023-03-04T02:50:25;99518.22;;;19.52;30.74
34197;BME280;36594;45.192;5.722;2023-03-04T02:53:13;99512.57;;;19.53;30.75
34197;BME280;36594;45.192;5.722;2023-03-04T02:56:04;99512.02;;;19.54;30.72
34197;BME280;36594;45.192;5.722;2023-03-04T02:58:54;99509.52;;;19.52;30.71
34197;BME280;36594;45.192;5.722;2023-03-04T03:01:42;99508.78;;;19.54;30.72
34197;BME280;36594;45.192;5.722;2023-03-04T03:04:32;99507.84;;;19.58;30.68
34197;BME280;36594;45.192;5.722;2023-03-04T03:07:21;99502.30;;;19.55;30.67
34197;BME280;36594;45.192;5.722;2023-03-04T03:10:11;99501.67;;;19.53;30.68
34197;BME280;36594;45.192;5.722;2023-03-04T03:13:00;99506.16;;;19.57;30.70
34197;BME280;36594;45.192;5.722;2023-03-04T03:15:49;99502.81;;;19.55;30.69
34197;BME280;36594;45.192;5.722;2023-03-04T03:18:38;99507.64;;;19.53;30.70
34197;BME280;36594;45.192;5.722;2023-03-04T03:21:27;99504.70;;;19.54;30.70
34197;BME280;36594;45.192;5.722;2023-03-04T03:24:15;99498.73;;;19.55;30.71
34197;BME280;36594;45.192;5.722;2023-03-04T03:27:04;99498.95;;;19.53;30.71
34197;BME280;36594;45.192;5.722;2023-03-04T03:29:53;99503.33;;;19.54;30.72
34197;BME280;36594;45.192;5.722;2023-03-04T03:32:42;99502.81;;;19.55;30.72
34197;BME280;36594;45.192;5.722;2023-03-04T03:35:30;99502.48;;;19.54;30.73
34197;BME280;36594;45.192;5.722;2023-03-04T03:38:19;99499.77;;;19.54;30.73
34197;BME280;36594;45.192;5.722;2023-03-04T03:41:07;99506.90;;;19.55;30.72
34197;BME280;36594;45.192;5.722;2023-03-04T03:43:56;99508.55;;;19.56;30.69
34197;BME280;36594;45.192;5.722;2023-03-04T03:46:44;99508.03;;;19.56;30.70
34197;BME280;36594;45.192;5.722;2023-03-04T03:49:33;99509.85;;;19.53;30.70
34197;BME280;36594;45.192;5.722;2023-03-04T03:52:21;99514.95;;;19.59;30.71
34197;BME280;36594;45.192;5.722;2023-03-04T03:55:09;99506.67;;;19.56;30.68
34197;BME280;36594;45.192;5.722;2023-03-04T03:57:58;99508.55;;;19.56;30.70
34197;BME280;36594;45.192;5.722;2023-03-04T04:00:46;99519.45;;;19.56;30.69
34197;BME280;36594;45.192;5.722;2023-03-04T04:03:35;99512.97;;;19.57;30.73
34197;BME280;36594;45.192;5.722;2023-03-04T04:06:23;99509.40;;;19.56;30.70
34197;BME280;36594;45.192;5.722;2023-03-04T04:09:12;99511.38;;;19.58;30.71
34197;BME280;36594;45.192;5.722;2023-03-04T04:12:00;99510.47;;;19.55;30.69
34197;BME280;36594;45.192;5.722;2023-03-04T04:14:49;99506.58;;;19.54;30.75
34197;BME280;36594;45.192;5.722;2023-03-04T04:17:37;99503.66;;;19.55;30.74
34197;BME280;36594;45.192;5.722;2023-03-04T04:20:25;99504.47;;;19.56;30.72
34197;BME280;36594;45.192;5.722;2023-03-04T04:23:13;99504.47;;;19.56;30.69
34197;BME280;36594;45.192;5.722;2023-03-04T04:26:02;99508.55;;;19.56;30.72
34197;BME280;36594;45.192;5.722;2023-03-04T04:28:51;99507.19;;;19.56;30.71
34197;BME280;36594;45.192;5.722;2023-03-04T04:31:39;99515.36;;;19.56;30.74
34197;BME280;36594;45.192;5.722;2023-03-04T04:34:28;99520.00;;;19.55;30.75
34197;BME280;36594;45.192;5.722;2023-03-04T04:37:16;99524.09;;;19.55;30.73
34197;BME280;36594;45.192;5.722;2023-03-04T04:40:05;99522.17;;;19.56;30.74
34197;BME280;36594;45.192;5.722;2023-03-04T04:42:53;99525.55;;;19.58;30.70
34197;BME280;36594;45.192;5.722;2023-03-04T04:45:43;99526.59;;;19.57;30.74
34197;BME280;36594;45.192;5.722;2023-03-04T04:48:31;99519.55;;;19.58;30.69
34197;BME280;36594;45.192;5.722;2023-03-04T04:51:20;99523.64;;;19.58;30.72
34197;BME280;36594;45.192;5.722;2023-03-04T04:54:09;99520.91;;;19.58;30.72
34197;BME280;36594;45.192;5.722;2023-03-04T04:56:58;99524.09;;;19.55;30.72
34197;BME280;36594;45.192;5.722;2023-03-04T04:59:47;99523.02;;;19.56;30.74
34197;BME280;36594;45.192;5.722;2023-03-04T05:02:36;99518.94;;;19.56;30.73
34197;BME280;36594;45.192;5.722;2023-03-04T05:05:24;99517.28;;;19.55;30.75
34197;BME280;36594;45.192;5.722;2023-03-04T05:08:13;99516.66;;;19.53;30.76
34197;BME280;36594;45.192;5.722;2023-03-04T05:11:03;99518.09;;;19.56;30.78
34197;BME280;36594;45.192;5.722;2023-03-04T05:13:52;99515.36;;;19.56;30.75
34197;BME280;36594;45.192;5.722;2023-03-04T05:16:40;99521.36;;;19.55;30.75
34197;BME280;36594;45.192;5.722;2023-03-04T05:19:28;99516.11;;;19.54;30.75
34197;BME280;36594;45.192;5.722;2023-03-04T05:22:17;99527.11;;;19.56;30.77
34197;BME280;36594;45.192;5.722;2023-03-04T05:25:06;99524.38;;;19.56;30.73
34197;BME280;36594;45.192;5.722;2023-03-04T05:27:55;99525.23;;;19.57;30.74
34197;BME280;36594;45.192;5.722;2023-03-04T05:30:44;99532.88;;;19.57;30.72
34197;BME280;36594;45.192;5.722;2023-03-04T05:33:33;99528.28;;;19.58;30.71
34197;BME280;36594;45.192;5.722;2023-03-04T05:36:21;99533.40;;;19.57;30.73
34197;BME280;36594;45.192;5.722;2023-03-04T05:39:09;99534.98;;;19.55;30.76
34197;BME280;36594;45.192;5.722;2023-03-04T05:41:57;99534.77;;;19.57;30.73
34197;BME280;36594;45.192;5.722;2023-03-04T05:44:46;99536.55;;;19.54;30.74
34197;BME280;36594;45.192;5.722;2023-03-04T05:47:34;99535.80;;;19.56;30.75
34197;BME280;36594;45.192;5.722;2023-03-04T05:50:23;99536.87;;;19.55;30.77
34197;BME280;36594;45.192;5.722;2023-03-04T05:53:12;99540.54;;;19.58;30.75
34197;BME280;36594;45.192;5.722;2023-03-04T05:56:06;99534.98;;;19.55;30.75
34197;BME280;36594;45.192;5.722;2023-03-04T05:58:56;99535.61;;;19.57;30.74
34197;BME280;36594;45.192;5.722;2023-03-04T06:01:46;99536.34;;;19.55;30.76
34197;BME280;36594;45.192;5.722;2023-03-04T06:04:34;99537.48;;;19.57;30.78
34197;BME280;36594;45.192;5.722;2023-03-04T06:07:22;99541.05;;;19.57;30.78
34197;BME280;36594;45.192;5.722;2023-03-04T06:10:13;99548.06;;;19.56;30.79
34197;BME280;36594;45.192;5.722;2023-03-04T06:13:03;99546.50;;;19.57;30.79
34197;BME280;36594;45.192;5.722;2023-03-04T06:15:55;99552.99;;;19.56;30.75
34197;BME280;36594;45.192;5.722;2023-03-04T06:18:44;99554.88;;;19.56;30.75
34197;BME280;36594;45.192;5.722;2023-03-04T06:21:32;99559.51;;;19.55;30.76
34197;BME280;36594;45.192;5.722;2023-03-04T06:24:21;99555.09;;;19.54;30.77
34197;BME280;36594;45.192;5.722;2023-03-04T06:27:12;99557.59;;;19.56;30.79
34197;BME280;36594;45.192;5.722;2023-03-04T06:30:02;99563.79;;;19.54;30.80
34197;BME280;36594;45.192;5.722;2023-03-04T06:32:50;99564.73;;;19.57;30.78
34197;BME280;36594;45.192;5.722;2023-03-04T06:35:39;99562.75;;;19.55;30.77
34197;BME280;36594;45.192;5.722;2023-03-04T06:38:27;99561.69;;;19.56;30.78
34197;BME280;36594;45.192;5.722;2023-03-04T06:41:16;99564.11;;;19.55;30.79
34197;BME280;36594;45.192;5.722;2023-03-04T06:44:05;99564.11;;;19.55;30.77
34197;BME280;36594;45.192;5.722;2023-03-04T06:46:53;99566.84;;;19.55;30.75
34197;BME280;36594;45.192;5.722;2023-03-04T06:49:41;99567.13;;;19.56;30.79
34197;BME280;36594;45.192;5.722;2023-03-04T06:52:29;99574.49;;;19.55;30.75
34197;BME280;36594;45.192;5.722;2023-03-04T06:55:18;99570.59;;;19.54;30.75
34197;BME280;36594;45.192;5.722;2023-03-04T06:58:07;99568.72;;;19.54;30.81
34197;BME280;36594;45.192;5.722;2023-03-04T07:00:55;99571.77;;;19.55;30.80
34197;BME280;36594;45.192;5.722;2023-03-04T07:03:45;99586.95;;;19.54;30.80
34197;BME280;36594;45.192;5.722;2023-03-04T07:06:33;99584.55;;;19.55;30.80
34197;BME280;36594;45.192;5.722;2023-03-04T07:09:22;99589.67;;;19.54;30.84
34197;BME280;36594;45.192;5.722;2023-03-04T07:12:11;99584.55;;;19.55;30.83
34197;BME280;36594;45.192;5.722;2023-03-04T07:14:59;99584.22;;;19.54;30.83
34197;BME280;36594;45.192;5.722;2023-03-04T07:17:47;99584.45;;;19.52;30.85
34197;BME280;36594;45.192;5.722;2023-03-04T07:20:35;99592.39;;;19.54;30.82
34197;BME280;36594;45.192;5.722;2023-03-04T07:23:24;99587.27;;;19.55;30.84
34197;BME280;36594;45.192;5.722;2023-03-04T07:26:12;99588.02;;;19.53;30.84
34197;BME280;36594;45.192;5.722;2023-03-04T07:29:00;99587.69;;;19.52;30.88
34197;BME280;36594;45.192;5.722;2023-03-04T07:31:49;99591.03;;;19.54;30.87
34197;BME280;36594;45.192;5.722;2023-03-04T07:34:37;99589.16;;;19.54;30.87
34197;BME280;36594;45.192;5.722;2023-03-04T07:37:26;99588.64;;;19.55;30.80
34197;BME280;36594;45.192;5.722;2023-03-04T07:40:14;99592.39;;;19.54;30.82
34197;BME280;36594;45.192;5.722;2023-03-04T07:43:03;99597.33;;;19.54;30.82
34197;BME280;36594;45.192;5.722;2023-03-04T07:45:52;99596.81;;;19.55;30.84
34197;BME280;36594;45.192;5.722;2023-03-04T07:48:42;99595.86;;;19.52;30.88
34197;BME280;36594;45.192;5.722;2023-03-04T07:51:30;99600.27;;;19.53;30.85
34197;BME280;36594;45.192;5.722;2023-03-04T07:54:19;99598.69;;;19.54;30.85
34197;BME280;36594;45.192;5.722;2023-03-04T07:57:07;99608.00;;;19.56;30.74
34197;BME280;36594;45.192;5.722;2023-03-04T07:59:56;99607.70;;;19.55;30.81
34197;BME280;36594;45.192;5.722;2023-03-04T08:02:44;99609.91;;;19.55;30.82
34197;BME280;36594;45.192;5.722;2023-03-04T08:05:32;99613.16;;;19.55;30.85
34197;BME280;36594;45.192;5.722;2023-03-04T08:08:20;99618.90;;;19.56;30.83
34197;BME280;36594;45.192;5.722;2023-03-04T08:11:11;99614.30;;;19.56;30.83
34197;BME280;36594;45.192;5.722;2023-03-04T08:14:00;99618.09;;;19.55;30.87
34197;BME280;36594;45.192;5.722;2023-03-04T08:16:49;99622.69;;;19.55;30.86
34197;BME280;36594;45.192;5.722;2023-03-04T08:19:38;99621.95;;;19.57;30.87
34197;BME280;36594;45.192;5.722;2023-03-04T08:22:26;99622.98;;;19.56;30.87
34197;BME280;36594;45.192;5.722;2023-03-04T08:25:14;99625.71;;;19.56;30.87
34197;BME280;36594;45.192;5.722;2023-03-04T08:28:03;99624.05;;;19.55;30.87
34197;BME280;36594;45.192;5.722;2023-03-04T08:30:52;99622.98;;;19.56;30.90
34197;BME280;36594;45.192;5.722;2023-03-04T08:33:42;99626.88;;;19.57;30.85
34197;BME280;36594;45.192;5.722;2023-03-04T08:36:31;99624.05;;;19.55;30.86
34197;BME280;36594;45.192;5.722;2023-03-04T08:39:19;99624.34;;;19.56;30.86
34197;BME280;36594;45.192;5.722;2023-03-04T08:42:08;99618.70;;;19.57;30.90
34197;BME280;36594;45.192;5.722;2023-03-04T08:44:56;99624.67;;;19.57;30.94
34197;BME280;36594;45.192;5.722;2023-03-04T08:47:45;99621.11;;;19.56;30.90
34197;BME280;36594;45.192;5.722;2023-03-04T08:50:34;99623.41;;;19.59;30.85
34197;BME280;36594;45.192;5.722;2023-03-04T08:53:23;99626.36;;;19.58;30.80
34197;BME280;36594;45.192;5.722;2023-03-04T08:56:12;99632.84;;;19.57;30.84
34197;BME280;36594;45.192;5.722;2023-03-04T08:59:01;99636.94;;;19.57;30.84
34197;BME280;36594;45.192;5.722;2023-03-04T09:01:50;99630.13;;;19.57;30.84
34197;BME280;36594;45.192;5.722;2023-03-04T09:04:38;99637.27;;;19.58;30.88
34197;BME280;36594;45.192;5.722;2023-03-04T09:07:27;99633.98;;;19.58;30.88
34197;BME280;36594;45.192;5.722;2023-03-04T09:10:16;99632.84;;;19.57;30.85
34197;BME280;36594;45.192;5.722;2023-03-04T09:13:04;99633.47;;;19.59;30.89
34197;BME280;36594;45.192;5.722;2023-03-04T09:15:53;99629.61;;;19.57;30.87
34197;BME280;36594;45.192;5.722;2023-03-04T09:18:42;99637.05;;;19.59;30.89
34197;BME280;36594;45.192;5.722;2023-03-04T09:21:30;99635.68;;;19.59;30.86
34197;BME280;36594;45.192;5.722;2023-03-04T09:24:19;99634.31;;;19.59;30.89
34197;BME280;36594;45.192;5.722;2023-03-04T09:27:09;99643.95;;;19.62;30.88
34197;BME280;36594;45.192;5.722;2023-03-04T09:29:57;99636.52;;;19.60;30.87
34197;BME280;36594;45.192;5.722;2023-03-04T09:32:45;99636.20;;;19.59;30.90
34197;BME280;36594;45.192;5.722;2023-03-04T09:35:34;99641.13;;;19.59;30.89
34197;BME280;36594;45.192;5.722;2023-03-04T09:38:23;99635.16;;;19.60;30.85
34197;BME280;36594;45.192;5.722;2023-03-04T09:41:28;99637.05;;;19.59;30.88
34197;BME280;36594;45.192;5.722;2023-03-04T09:44:29;99637.66;;;19.61;30.85
34197;BME280;36594;45.192;5.722;2023-03-04T09:47:14;99631.59;;;19.59;30.88
34197;BME280;36594;45.192;5.722;2023-03-04T09:50:06;99625.00;;;19.58;30.90
34197;BME280;36594;45.192;5.722;2023-03-04T09:55:56;99632.44;;;19.60;30.89
34197;BME280;36594;45.192;5.722;2023-03-04T09:58:56;99633.80;;;19.60;30.89
34197;BME280;36594;45.192;5.722;2023-03-04T10:04:47;99623.94;;;19.59;30.91
34197;BME280;36594;45.192;5.722;2023-03-04T10:07:30;99617.55;;;19.62;30.91
34197;BME280;36594;45.192;5.722;2023-03-04T10:10:32;99611.16;;;19.59;30.92
34197;BME280;36594;45.192;5.722;2023-03-04T10:13:25;99612.63;;;19.62;30.88
34197;BME280;36594;45.192;5.722;2023-03-04T10:16:15;99619.00;;;19.58;30.93
34197;BME280;36594;45.192;5.722;2023-03-04T10:19:23;99613.36;;;19.60;30.90
34197;BME280;36594;45.192;5.722;2023-03-04T10:22:26;99619.11;;;19.61;30.90
34197;BME280;36594;45.192;5.722;2023-03-04T10:25:17;99615.47;;;19.58;30.94
34197;BME280;36594;45.192;5.722;2023-03-04T10:28:17;99615.76;;;19.59;30.96
34197;BME280;36594;45.192;5.722;2023-03-04T10:31:26;99606.22;;;19.59;30.97
34197;BME280;36594;45.192;5.722;2023-03-04T10:34:12;99604.67;;;19.60;30.95
34197;BME280;36594;45.192;5.722;2023-03-04T10:37:06;99599.73;;;19.60;30.97
34197;BME280;36594;45.192;5.722;2023-03-04T10:39:57;99603.09;;;19.62;30.96
34197;BME280;36594;45.192;5.722;2023-03-04T10:42:58;99599.29;;;19.63;30.93
34197;BME280;36594;45.192;5.722;2023-03-04T10:45:40;99599.29;;;19.63;30.92
34197;BME280;36594;45.192;5.722;2023-03-04T10:48:30;99597.92;;;19.63;30.93
34197;BME280;36594;45.192;5.722;2023-03-04T10:51:24;99600.98;;;19.64;30.90
34197;BME280;36594;45.192;5.722;2023-03-04T10:54:23;99602.67;;;19.65;30.93
34197;BME280;36594;45.192;5.722;2023-03-04T10:57:16;99602.12;;;19.65;30.90
34197;BME280;36594;45.192;5.722;2023-03-04T11:00:29;99605.39;;;19.65;30.95
34197;BME280;36594;45.192;5.722;2023-03-04T11:06:21;99596.05;;;19.63;30.93
34197;BME280;36594;45.192;5.722;2023-03-04T11:09:24;99599.95;;;19.65;30.95
34197;BME280;36594;45.192;5.722;2023-03-04T11:12:12;99595.63;;;19.66;30.91
34197;BME280;36594;45.192;5.722;2023-03-04T11:15:03;99596.99;;;19.66;30.91
34197;BME280;36594;45.192;5.722;2023-03-04T11:17:55;99592.29;;;19.64;30.97
34197;BME280;36594;45.192;5.722;2023-03-04T11:20:45;99595.73;;;19.69;30.94
34197;BME280;36594;45.192;5.722;2023-03-04T11:23:58;99585.58;;;19.67;30.91
34197;BME280;36594;45.192;5.722;2023-03-04T11:26:42;99587.66;;;19.71;30.88
34197;BME280;36594;45.192;5.722;2023-03-04T11:32:46;99585.45;;;19.71;30.89
34197;BME280;36594;45.192;5.722;2023-03-04T11:38:42;99580.97;;;19.67;30.89
34197;BME280;36594;45.192;5.722;2023-03-04T11:41:40;99570.59;;;19.67;30.94
34197;BME280;36594;45.192;5.722;2023-03-04T11:44:24;99567.73;;;19.71;30.92
34197;BME280;36594;45.192;5.722;2023-03-04T11:53:22;99569.20;;;19.73;30.86
34197;BME280;36594;45.192;5.722;2023-03-04T11:56:31;99566.37;;;19.71;30.91
34197;BME280;36594;45.192;5.722;2023-03-04T11:59:45;99566.60;;;19.69;30.93
34197;BME280;36594;45.192;5.722;2023-03-04T12:02:46;99565.63;;;19.73;30.92
34197;BME280;36594;45.192;5.722;2023-03-04T12:09:48;99562.80;;;19.70;30.94
34197;BME280;36594;45.192;5.722;2023-03-04T12:33:31;99535.66;;;19.73;30.95
34197;BME280;36594;45.192;5.722;2023-03-04T12:36:24;99533.88;;;19.76;30.90
34197;BME280;36594;45.192;5.722;2023-03-04T12:42:18;99526.11;;;19.73;30.91
34197;BME280;36594;45.192;5.722;2023-03-04T12:45:37;99516.28;;;19.72;30.95
34197;BME280;36594;45.192;5.722;2023-03-04T12:48:38;99517.94;;;19.73;30.94
34197;BME280;36594;45.192;5.722;2023-03-04T12:54:36;99508.92;;;19.72;30.96
34197;BME280;36594;45.192;5.722;2023-03-04T12:57:25;99500.74;;;19.72;30.93
34197;BME280;36594;45.192;5.722;2023-03-04T13:09:25;99508.27;;;19.77;30.90
34197;BME280;36594;45.192;5.722;2023-03-04T13:12:23;99510.70;;;19.76;30.88
34197;BME280;36594;45.192;5.722;2023-03-04T13:24:41;99503.98;;;19.78;30.87
34197;BME280;36594;45.192;5.722;2023-03-04T13:26:54;99502.30;;;19.77;30.86
34197;BME280;36594;45.192;5.722;2023-03-04T13:29:42;99495.48;;;19.77;30.87
34197;BME280;36594;45.192;5.722;2023-03-04T13:32:36;99497.47;;;19.79;30.85
34197;BME280;36594;45.192;5.722;2023-03-04T13:38:37;99489.61;;;19.80;30.83
34197;BME280;36594;45.192;5.722;2023-03-04T13:41:31;99486.27;;;19.78;30.86
34197;BME280;36594;45.192;5.722;2023-03-04T13:47:43;99487.50;;;19.82;30.84
34197;BME280;36594;45.192;5.722;2023-03-04T13:50:47;99478.61;;;19.78;30.86
34197;BME280;36594;45.192;5.722;2023-03-04T13:53:52;99476.73;;;19.78;30.83
34197;BME280;36594;45.192;5.722;2023-03-04T13:56:46;99477.58;;;19.79;30.89
34197;BME280;36594;45.192;5.722;2023-03-04T13:59:55;99471.80;;;19.78;30.90
34197;BME280;36594;45.192;5.722;2023-03-04T14:02:44;99476.41;;;19.77;30.87
34197;BME280;36594;45.192;5.722;2023-03-04T14:05:32;99466.34;;;19.78;30.89
34197;BME280;36594;45.192;5.722;2023-03-04T14:08:23;99472.42;;;19.80;30.89
34197;BME280;36594;45.192;5.722;2023-03-04T14:11:33;99467.81;;;19.80;30.84
34197;BME280;36594;45.192;5.722;2023-03-04T14:14:25;99457.30;;;19.84;30.81
34197;BME280;36594;45.192;5.722;2023-03-04T14:17:19;99459.41;;;19.82;30.82
34197;BME280;36594;45.192;5.722;2023-03-04T14:20:47;99451.03;;;19.83;30.84
34197;BME280;36594;45.192;5.722;2023-03-04T14:23:28;99450.19;;;19.83;30.84
34197;BME280;36594;45.192;5.722;2023-03-04T14:26:17;99453.95;;;19.82;30.80
34197;BME280;36594;45.192;5.722;2023-03-04T14:29:20;99450.94;;;19.81;30.84
34197;BME280;36594;45.192;5.722;2023-03-04T14:32:11;99441.69;;;19.82;30.86
34197;BME280;36594;45.192;5.722;2023-03-04T14:35:14;99442.20;;;19.81;30.85
34197;BME280;36594;45.192;5.722;2023-03-04T14:38:31;99440.33;;;19.82;30.85
34197;BME280;36594;45.192;5.722;2023-03-04T14:41:05;99440.33;;;19.82;30.88
34197;BME280;36594;45.192;5.722;2023-03-04T14:44:02;99436.23;;;19.82;30.86
34197;BME280;36594;45.192;5.722;2023-03-04T14:46:49;99429.23;;;19.83;30.85
34197;BME280;36594;45.192;5.722;2023-03-04T14:49:39;99426.50;;;19.83;30.86
34197;BME280;36594;45.192;5.722;2023-03-04T14:52:37;99424.81;;;19.82;30.84
34197;BME280;36594;45.192;5.722;2023-03-04T14:55:27;99416.41;;;19.84;30.81
34197;BME280;36594;45.192;5.722;2023-03-04T14:58:29;99423.55;;;19.85;30.85
34197;BME280;36594;45.192;5.722;2023-03-04T15:04:09;99418.52;;;19.82;30.88
34197;BME280;36594;45.192;5.722;2023-03-04T15:06:58;99419.45;;;19.85;30.87
34197;BME280;36594;45.192;5.722;2023-03-04T15:09:53;99415.89;;;19.84;30.82
34197;BME280;36594;45.192;5.722;2023-03-04T15:12:49;99412.13;;;19.85;30.84
34197;BME280;36594;45.192;5.722;2023-03-04T15:18:28;99392.34;;;19.81;30.81
34197;BME280;36594;45.192;5.722;2023-03-04T15:24:10;99391.77;;;19.88;30.76
34197;BME280;36594;45.192;5.722;2023-03-04T15:27:00;99388.43;;;19.86;30.79
34197;BME280;36594;45.192;5.722;2023-03-04T15:29:52;99389.05;;;19.88;30.78
34197;BME280;36594;45.192;5.722;2023-03-04T15:32:43;99385.70;;;19.86;30.82
34197;BME280;36594;45.192;5.722;2023-03-04T15:35:32;99386.52;;;19.86;30.84
34197;BME280;36594;45.192;5.722;2023-03-04T15:38:21;99390.09;;;19.87;30.84
34197;BME280;36594;45.192;5.722;2023-03-04T15:41:11;99386.84;;;19.87;30.80
34197;BME280;36594;45.192;5.722;2023-03-04T15:44:01;99384.63;;;19.87;30.82
34197;BME280;36594;45.192;5.722;2023-03-04T15:46:49;99380.02;;;19.87;30.80
34197;BME280;36594;45.192;5.722;2023-03-04T15:49:38;99377.59;;;19.88;30.79
34197;BME280;36594;45.192;5.722;2023-03-04T15:52:27;99379.59;;;19.90;30.78
34197;BME280;36594;45.192;5.722;2023-03-04T15:55:19;99376.98;;;19.86;30.84
34197;BME280;36594;45.192;5.722;2023-03-04T15:58:08;99378.66;;;19.87;30.81
34197;BME280;36594;45.192;5.722;2023-03-04T16:00:58;99375.70;;;19.89;30.82
34197;BME280;36594;45.192;5.722;2023-03-04T16:03:46;99365.88;;;19.88;30.80
34197;BME280;36594;45.192;5.722;2023-03-04T16:06:35;99366.16;;;19.89;30.80
34197;BME280;36594;45.192;5.722;2023-03-04T16:09:23;99361.78;;;19.88;30.79
34197;BME280;36594;45.192;5.722;2023-03-04T16:12:12;99364.52;;;19.88;30.82
34197;BME280;36594;45.192;5.722;2023-03-04T16:15:01;99360.42;;;19.88;30.80
34197;BME280;36594;45.192;5.722;2023-03-04T16:17:50;99363.67;;;19.87;30.82
34197;BME280;36594;45.192;5.722;2023-03-04T16:20:41;99365.64;;;19.89;30.81
34197;BME280;36594;45.192;5.722;2023-03-04T16:23:33;99364.19;;;19.87;30.82
34197;BME280;36594;45.192;5.722;2023-03-04T16:26:23;99363.34;;;19.86;30.85
34197;BME280;36594;45.192;5.722;2023-03-04T16:29:12;99359.87;;;19.88;30.78